sensor_id;sensor_type;location;lat;lon;timestamp;P1;durP1;ratioP1;P2;durP2;ratioP2
60612;SDS011;46443;59.792;17.626;2022-09-23T00:00:02;6.47;;;2.50;;
60612;SDS011;46443;59.792;17.626;2022-09-23T00:02:28;3.37;;;2.27;;
60612;SDS011;46443;59.792;17.626;2022-09-23T00:04:54;3.90;;;2.30;;
60612;SDS011;46443;59.792;17.626;2022-09-23T00:07:20;4.33;;;2.60;;
60612;SDS011;46443;59.792;17.626;2022-09-23T00:09:46;3.80;;;2.40;;
60612;SDS011;46443;59.792;17.626;2022-09-23T00:12:12;6.60;;;2.73;;
60612;SDS011;46443;59.792;17.626;2022-09-23T00:14:38;4.00;;;2.73;;
60612;SDS011;46443;59.792;17.626;2022-09-23T00:17:04;4.20;;;2.47;;
60612;SDS011;46443;59.792;17.626;2022-09-23T00:19:30;4.63;;;2.43;;
60612;SDS011;46443;59.792;17.626;2022-09-23T00:21:56;4.70;;;2.33;;
60612;SDS011;46443;59.792;17.626;2022-09-23T00:24:22;4.03;;;2.40;;
60612;SDS011;46443;59.792;17.626;2022-09-23T00:26:48;4.63;;;2.40;;
60612;SDS011;46443;59.792;17.626;2022-09-23T00:29:15;4.03;;;2.47;;
60612;SDS011;46443;59.792;17.626;2022-09-23T00:31:41;5.23;;;2.60;;
60612;SDS011;46443;59.792;17.626;2022-09-23T00:34:08;6.03;;;2.93;;
60612;SDS011;46443;59.792;17.626;2022-09-23T00:36:35;3.77;;;2.40;;
60612;SDS011;46443;59.792;17.626;2022-09-23T00:39:01;4.67;;;2.50;;
60612;SDS011;46443;59.792;17.626;2022-09-23T00:41:28;3.93;;;2.17;;
60612;SDS011;46443;59.792;17.626;2022-09-23T00:43:56;4.77;;;2.30;;
60612;SDS011;46443;59.792;17.626;2022-09-23T00:46:31;4.80;;;2.30;;
60612;SDS011;46443;59.792;17.626;2022-09-23T00:49:10;5.00;;;2.50;;
60612;SDS011;46443;59.792;17.626;2022-09-23T00:51:38;5.20;;;2.50;;
60612;SDS011;46443;59.792;17.626;2022-09-23T00:56:33;4.80;;;2.50;;
60612;SDS011;46443;59.792;17.626;2022-09-23T00:58:59;5.83;;;2.50;;
60612;SDS011;46443;59.792;17.626;2022-09-23T01:01:26;3.73;;;2.37;;
60612;SDS011;46443;59.792;17.626;2022-09-23T01:03:52;3.43;;;2.30;;
60612;SDS011;46443;59.792;17.626;2022-09-23T01:06:18;3.93;;;2.43;;
60612;SDS011;46443;59.792;17.626;2022-09-23T01:08:44;4.93;;;2.37;;
60612;SDS011;46443;59.792;17.626;2022-09-23T01:13:54;4.93;;;2.60;;
60612;SDS011;46443;59.792;17.626;2022-09-23T01:37:47;4.00;;;2.50;;
60612;SDS011;46443;59.792;17.626;2022-09-23T01:40:15;5.03;;;3.03;;
60612;SDS011;46443;59.792;17.626;2022-09-23T01:42:49;4.17;;;2.50;;
60612;SDS011;46443;59.792;17.626;2022-09-23T01:47:52;5.97;;;2.73;;
60612;SDS011;46443;59.792;17.626;2022-09-23T01:50:27;4.90;;;3.10;;
60612;SDS011;46443;59.792;17.626;2022-09-23T01:53:17;3.63;;;2.63;;
60612;SDS011;46443;59.792;17.626;2022-09-23T01:55:47;4.97;;;2.70;;
60612;SDS011;46443;59.792;17.626;2022-09-23T02:00:43;3.90;;;2.60;;
60612;SDS011;46443;59.792;17.626;2022-09-23T02:03:24;5.13;;;2.87;;
60612;SDS011;46443;59.792;17.626;2022-09-23T02:05:55;5.23;;;2.60;;
60612;SDS011;46443;59.792;17.626;2022-09-23T02:08:24;7.03;;;2.80;;
60612;SDS011;46443;59.792;17.626;2022-09-23T02:10:53;5.28;;;2.45;;
60612;SDS011;46443;59.792;17.626;2022-09-23T02:15:54;5.23;;;2.70;;
60612;SDS011;46443;59.792;17.626;2022-09-23T02:18:23;3.97;;;2.40;;
60612;SDS011;46443;59.792;17.626;2022-09-23T02:20:50;5.73;;;2.80;;
60612;SDS011;46443;59.792;17.626;2022-09-23T02:23:22;4.73;;;2.87;;
60612;SDS011;46443;59.792;17.626;2022-09-23T02:28:40;4.03;;;2.70;;
60612;SDS011;46443;59.792;17.626;2022-09-23T02:33:42;4.10;;;2.60;;
60612;SDS011;46443;59.792;17.626;2022-09-23T02:36:54;5.28;;;2.92;;
60612;SDS011;46443;59.792;17.626;2022-09-23T02:39:02;5.72;;;2.65;;
60612;SDS011;46443;59.792;17.626;2022-09-23T02:44:01;4.67;;;2.77;;
60612;SDS011;46443;59.792;17.626;2022-09-23T02:46:28;5.07;;;2.63;;
60612;SDS011;46443;59.792;17.626;2022-09-23T02:48:55;4.80;;;2.90;;
60612;SDS011;46443;59.792;17.626;2022-09-23T02:51:25;5.43;;;2.90;;
60612;SDS011;46443;59.792;17.626;2022-09-23T02:53:53;4.80;;;2.90;;
60612;SDS011;46443;59.792;17.626;2022-09-23T02:56:20;4.67;;;2.60;;
60612;SDS011;46443;59.792;17.626;2022-09-23T02:58:50;4.63;;;2.67;;
60612;SDS011;46443;59.792;17.626;2022-09-23T03:03:45;5.80;;;2.77;;
60612;SDS011;46443;59.792;17.626;2022-09-23T03:06:19;4.13;;;2.67;;
60612;SDS011;46443;59.792;17.626;2022-09-23T03:09:15;4.43;;;2.20;;
60612;SDS011;46443;59.792;17.626;2022-09-23T03:11:38;3.60;;;2.40;;
60612;SDS011;46443;59.792;17.626;2022-09-23T03:14:13;4.30;;;2.40;;
60612;SDS011;46443;59.792;17.626;2022-09-23T03:16:48;5.07;;;2.40;;
60612;SDS011;46443;59.792;17.626;2022-09-23T03:24:25;5.83;;;2.73;;
60612;SDS011;46443;59.792;17.626;2022-09-23T03:26:52;5.87;;;3.10;;
60612;SDS011;46443;59.792;17.626;2022-09-23T03:29:19;4.33;;;2.80;;
60612;SDS011;46443;59.792;17.626;2022-09-23T03:31:46;5.57;;;2.70;;
60612;SDS011;46443;59.792;17.626;2022-09-23T03:34:30;8.00;;;3.30;;
60612;SDS011;46443;59.792;17.626;2022-09-23T03:37:00;5.37;;;3.40;;
60612;SDS011;46443;59.792;17.626;2022-09-23T03:39:34;5.87;;;3.40;;
60612;SDS011;46443;59.792;17.626;2022-09-23T03:42:03;4.63;;;3.17;;
60612;SDS011;46443;59.792;17.626;2022-09-23T03:44:32;4.63;;;2.60;;
60612;SDS011;46443;59.792;17.626;2022-09-23T03:47:02;6.53;;;2.90;;
60612;SDS011;46443;59.792;17.626;2022-09-23T03:49:28;5.67;;;3.40;;
60612;SDS011;46443;59.792;17.626;2022-09-23T03:51:57;5.70;;;3.00;;
60612;SDS011;46443;59.792;17.626;2022-09-23T03:54:24;4.90;;;3.10;;
60612;SDS011;46443;59.792;17.626;2022-09-23T03:56:54;4.63;;;3.03;;
60612;SDS011;46443;59.792;17.626;2022-09-23T03:59:21;5.50;;;2.83;;
60612;SDS011;46443;59.792;17.626;2022-09-23T04:01:48;5.50;;;2.97;;
60612;SDS011;46443;59.792;17.626;2022-09-23T04:04:14;7.07;;;3.40;;
60612;SDS011;46443;59.792;17.626;2022-09-23T04:06:40;4.30;;;2.70;;
60612;SDS011;46443;59.792;17.626;2022-09-23T04:09:06;6.00;;;2.70;;
60612;SDS011;46443;59.792;17.626;2022-09-23T04:11:32;4.63;;;3.00;;
60612;SDS011;46443;59.792;17.626;2022-09-23T04:13:59;3.83;;;2.47;;
60612;SDS011;46443;59.792;17.626;2022-09-23T04:16:25;6.17;;;3.17;;
60612;SDS011;46443;59.792;17.626;2022-09-23T04:18:51;4.50;;;2.30;;
60612;SDS011;46443;59.792;17.626;2022-09-23T04:21:17;5.70;;;2.73;;
60612;SDS011;46443;59.792;17.626;2022-09-23T04:23:43;6.77;;;2.77;;
60612;SDS011;46443;59.792;17.626;2022-09-23T04:26:10;4.50;;;2.60;;
60612;SDS011;46443;59.792;17.626;2022-09-23T04:28:37;4.23;;;2.60;;
60612;SDS011;46443;59.792;17.626;2022-09-23T04:31:03;6.47;;;2.60;;
60612;SDS011;46443;59.792;17.626;2022-09-23T04:33:30;5.17;;;2.90;;
60612;SDS011;46443;59.792;17.626;2022-09-23T04:35:56;6.03;;;2.80;;
60612;SDS011;46443;59.792;17.626;2022-09-23T04:38:22;5.80;;;2.70;;
60612;SDS011;46443;59.792;17.626;2022-09-23T04:40:48;4.43;;;2.80;;
60612;SDS011;46443;59.792;17.626;2022-09-23T04:43:15;4.23;;;2.80;;
60612;SDS011;46443;59.792;17.626;2022-09-23T04:45:41;4.53;;;2.70;;
60612;SDS011;46443;59.792;17.626;2022-09-23T04:48:07;4.57;;;2.67;;
60612;SDS011;46443;59.792;17.626;2022-09-23T04:50:34;5.87;;;3.30;;
60612;SDS011;46443;59.792;17.626;2022-09-23T04:53:01;5.00;;;3.00;;
60612;SDS011;46443;59.792;17.626;2022-09-23T04:55:27;4.23;;;2.83;;
60612;SDS011;46443;59.792;17.626;2022-09-23T04:57:53;4.70;;;2.77;;
60612;SDS011;46443;59.792;17.626;2022-09-23T05:00:19;5.13;;;2.93;;
60612;SDS011;46443;59.792;17.626;2022-09-23T05:02:47;6.10;;;2.70;;
60612;SDS011;46443;59.792;17.626;2022-09-23T05:05:15;6.00;;;3.00;;
60612;SDS011;46443;59.792;17.626;2022-09-23T05:07:45;5.70;;;2.77;;
60612;SDS011;46443;59.792;17.626;2022-09-23T05:10:11;4.23;;;2.67;;
60612;SDS011;46443;59.792;17.626;2022-09-23T05:12:37;5.83;;;3.30;;
60612;SDS011;46443;59.792;17.626;2022-09-23T05:15:03;5.50;;;2.70;;
60612;SDS011;46443;59.792;17.626;2022-09-23T05:17:29;5.30;;;2.90;;
60612;SDS011;46443;59.792;17.626;2022-09-23T05:19:55;7.87;;;2.90;;
60612;SDS011;46443;59.792;17.626;2022-09-23T05:22:22;4.93;;;2.50;;
60612;SDS011;46443;59.792;17.626;2022-09-23T05:24:50;5.47;;;3.03;;
60612;SDS011;46443;59.792;17.626;2022-09-23T05:27:16;4.93;;;3.20;;
60612;SDS011;46443;59.792;17.626;2022-09-23T05:29:42;5.73;;;3.40;;
60612;SDS011;46443;59.792;17.626;2022-09-23T05:32:08;8.40;;;3.40;;
60612;SDS011;46443;59.792;17.626;2022-09-23T05:34:34;7.10;;;3.20;;
60612;SDS011;46443;59.792;17.626;2022-09-23T05:37:00;5.97;;;3.20;;
60612;SDS011;46443;59.792;17.626;2022-09-23T05:39:27;6.13;;;3.50;;
60612;SDS011;46443;59.792;17.626;2022-09-23T05:41:53;5.37;;;3.20;;
60612;SDS011;46443;59.792;17.626;2022-09-23T05:44:20;6.80;;;3.70;;
60612;SDS011;46443;59.792;17.626;2022-09-23T05:46:46;7.37;;;3.20;;
60612;SDS011;46443;59.792;17.626;2022-09-23T05:49:12;5.93;;;3.67;;
60612;SDS011;46443;59.792;17.626;2022-09-23T05:51:38;7.60;;;3.60;;
60612;SDS011;46443;59.792;17.626;2022-09-23T05:54:04;7.63;;;3.63;;
60612;SDS011;46443;59.792;17.626;2022-09-23T05:56:31;5.00;;;3.00;;
60612;SDS011;46443;59.792;17.626;2022-09-23T05:58:58;6.70;;;3.20;;
60612;SDS011;46443;59.792;17.626;2022-09-23T06:01:26;6.10;;;3.13;;
60612;SDS011;46443;59.792;17.626;2022-09-23T06:03:53;5.83;;;3.50;;
60612;SDS011;46443;59.792;17.626;2022-09-23T06:06:20;7.00;;;3.27;;
60612;SDS011;46443;59.792;17.626;2022-09-23T06:08:50;5.90;;;3.30;;
60612;SDS011;46443;59.792;17.626;2022-09-23T06:11:16;5.20;;;3.23;;
60612;SDS011;46443;59.792;17.626;2022-09-23T06:13:42;6.50;;;3.20;;
60612;SDS011;46443;59.792;17.626;2022-09-23T06:16:09;6.07;;;3.00;;
60612;SDS011;46443;59.792;17.626;2022-09-23T06:18:39;5.00;;;3.30;;
60612;SDS011;46443;59.792;17.626;2022-09-23T06:21:05;4.50;;;2.92;;
60612;SDS011;46443;59.792;17.626;2022-09-23T06:23:32;4.83;;;3.17;;
60612;SDS011;46443;59.792;17.626;2022-09-23T06:25:58;4.50;;;3.00;;
60612;SDS011;46443;59.792;17.626;2022-09-23T06:28:27;6.00;;;3.30;;
60612;SDS011;46443;59.792;17.626;2022-09-23T06:31:13;4.63;;;3.00;;
60612;SDS011;46443;59.792;17.626;2022-09-23T06:33:40;8.73;;;3.73;;
60612;SDS011;46443;59.792;17.626;2022-09-23T06:36:07;4.23;;;2.80;;
60612;SDS011;46443;59.792;17.626;2022-09-23T06:38:33;7.13;;;3.10;;
60612;SDS011;46443;59.792;17.626;2022-09-23T06:40:59;5.03;;;2.90;;
60612;SDS011;46443;59.792;17.626;2022-09-23T06:43:27;4.60;;;2.97;;
60612;SDS011;46443;59.792;17.626;2022-09-23T06:46:00;7.37;;;3.13;;
60612;SDS011;46443;59.792;17.626;2022-09-23T06:48:28;5.37;;;3.00;;
60612;SDS011;46443;59.792;17.626;2022-09-23T06:50:57;6.03;;;2.77;;
60612;SDS011;46443;59.792;17.626;2022-09-23T06:53:23;4.43;;;2.90;;
60612;SDS011;46443;59.792;17.626;2022-09-23T06:58:46;5.37;;;2.90;;
60612;SDS011;46443;59.792;17.626;2022-09-23T07:01:15;6.83;;;3.00;;
60612;SDS011;46443;59.792;17.626;2022-09-23T07:03:42;4.75;;;2.60;;
60612;SDS011;46443;59.792;17.626;2022-09-23T07:06:08;5.10;;;2.80;;
60612;SDS011;46443;59.792;17.626;2022-09-23T07:08:34;4.97;;;2.90;;
60612;SDS011;46443;59.792;17.626;2022-09-23T07:11:02;4.77;;;2.83;;
60612;SDS011;46443;59.792;17.626;2022-09-23T07:13:29;6.67;;;3.10;;
60612;SDS011;46443;59.792;17.626;2022-09-23T07:15:57;7.57;;;3.10;;
60612;SDS011;46443;59.792;17.626;2022-09-23T07:18:25;6.40;;;2.87;;
60612;SDS011;46443;59.792;17.626;2022-09-23T07:20:51;5.03;;;2.93;;
60612;SDS011;46443;59.792;17.626;2022-09-23T07:23:18;5.43;;;2.90;;
60612;SDS011;46443;59.792;17.626;2022-09-23T07:25:45;4.57;;;2.87;;
60612;SDS011;46443;59.792;17.626;2022-09-23T07:28:14;6.15;;;2.80;;
60612;SDS011;46443;59.792;17.626;2022-09-23T07:30:40;5.87;;;2.70;;
60612;SDS011;46443;59.792;17.626;2022-09-23T07:33:08;5.50;;;2.87;;
60612;SDS011;46443;59.792;17.626;2022-09-23T07:35:37;5.17;;;2.80;;
60612;SDS011;46443;59.792;17.626;2022-09-23T07:38:03;7.57;;;2.70;;
60612;SDS011;46443;59.792;17.626;2022-09-23T07:40:29;4.47;;;2.50;;
60612;SDS011;46443;59.792;17.626;2022-09-23T07:42:55;3.97;;;2.50;;
60612;SDS011;46443;59.792;17.626;2022-09-23T07:45:21;4.70;;;2.80;;
60612;SDS011;46443;59.792;17.626;2022-09-23T07:47:47;4.83;;;2.50;;
60612;SDS011;46443;59.792;17.626;2022-09-23T07:50:14;4.53;;;2.40;;
60612;SDS011;46443;59.792;17.626;2022-09-23T07:52:40;6.07;;;2.70;;
60612;SDS011;46443;59.792;17.626;2022-09-23T07:55:06;5.00;;;2.60;;
60612;SDS011;46443;59.792;17.626;2022-09-23T07:57:33;6.43;;;2.50;;
60612;SDS011;46443;59.792;17.626;2022-09-23T07:59:59;5.83;;;2.77;;
60612;SDS011;46443;59.792;17.626;2022-09-23T08:02:26;4.30;;;2.63;;
60612;SDS011;46443;59.792;17.626;2022-09-23T08:04:52;5.97;;;2.47;;
60612;SDS011;46443;59.792;17.626;2022-09-23T08:07:19;5.10;;;2.70;;
60612;SDS011;46443;59.792;17.626;2022-09-23T08:09:46;4.57;;;2.50;;
60612;SDS011;46443;59.792;17.626;2022-09-23T08:12:13;4.93;;;2.30;;
60612;SDS011;46443;59.792;17.626;2022-09-23T08:14:42;4.40;;;2.57;;
60612;SDS011;46443;59.792;17.626;2022-09-23T08:17:10;4.27;;;2.60;;
60612;SDS011;46443;59.792;17.626;2022-09-23T08:19:36;4.93;;;2.67;;
60612;SDS011;46443;59.792;17.626;2022-09-23T08:22:02;5.60;;;2.53;;
60612;SDS011;46443;59.792;17.626;2022-09-23T08:24:28;4.93;;;2.50;;
60612;SDS011;46443;59.792;17.626;2022-09-23T08:26:56;5.30;;;2.53;;
60612;SDS011;46443;59.792;17.626;2022-09-23T08:29:23;6.13;;;2.93;;
60612;SDS011;46443;59.792;17.626;2022-09-23T08:31:49;7.17;;;2.50;;
60612;SDS011;46443;59.792;17.626;2022-09-23T08:34:16;5.77;;;2.57;;
60612;SDS011;46443;59.792;17.626;2022-09-23T08:36:42;5.00;;;2.77;;
60612;SDS011;46443;59.792;17.626;2022-09-23T08:39:09;4.27;;;2.33;;
60612;SDS011;46443;59.792;17.626;2022-09-23T08:41:39;3.90;;;2.30;;
60612;SDS011;46443;59.792;17.626;2022-09-23T08:44:31;5.40;;;2.47;;
60612;SDS011;46443;59.792;17.626;2022-09-23T08:46:59;3.97;;;2.50;;
60612;SDS011;46443;59.792;17.626;2022-09-23T08:49:30;4.47;;;2.40;;
60612;SDS011;46443;59.792;17.626;2022-09-23T08:51:58;3.77;;;2.37;;
60612;SDS011;46443;59.792;17.626;2022-09-23T08:54:27;5.55;;;2.60;;
60612;SDS011;46443;59.792;17.626;2022-09-23T08:56:54;4.60;;;2.57;;
60612;SDS011;46443;59.792;17.626;2022-09-23T08:59:24;4.20;;;2.13;;
60612;SDS011;46443;59.792;17.626;2022-09-23T09:06:49;5.57;;;2.60;;
60612;SDS011;46443;59.792;17.626;2022-09-23T09:09:27;5.17;;;2.73;;
60612;SDS011;46443;59.792;17.626;2022-09-23T09:11:57;6.67;;;2.40;;
60612;SDS011;46443;59.792;17.626;2022-09-23T09:16:55;4.63;;;2.55;;
60612;SDS011;46443;59.792;17.626;2022-09-23T09:22:09;4.63;;;2.40;;
60612;SDS011;46443;59.792;17.626;2022-09-23T09:24:37;3.83;;;2.50;;
60612;SDS011;46443;59.792;17.626;2022-09-23T09:27:08;4.37;;;2.43;;
60612;SDS011;46443;59.792;17.626;2022-09-23T09:29:36;5.20;;;2.40;;
60612;SDS011;46443;59.792;17.626;2022-09-23T09:32:17;5.07;;;2.77;;
60612;SDS011;46443;59.792;17.626;2022-09-23T09:34:52;5.53;;;2.90;;
60612;SDS011;46443;59.792;17.626;2022-09-23T09:37:22;7.10;;;2.57;;
60612;SDS011;46443;59.792;17.626;2022-09-23T09:42:19;3.87;;;2.53;;
60612;SDS011;46443;59.792;17.626;2022-09-23T09:44:55;3.77;;;2.40;;
60612;SDS011;46443;59.792;17.626;2022-09-23T09:47:27;3.37;;;2.33;;
60612;SDS011;46443;59.792;17.626;2022-09-23T09:50:07;5.60;;;2.90;;
60612;SDS011;46443;59.792;17.626;2022-09-23T09:52:33;3.30;;;2.33;;
60612;SDS011;46443;59.792;17.626;2022-09-23T10:02:35;5.13;;;2.33;;
60612;SDS011;46443;59.792;17.626;2022-09-23T10:05:02;5.67;;;2.73;;
60612;SDS011;46443;59.792;17.626;2022-09-23T10:07:31;4.43;;;2.60;;
60612;SDS011;46443;59.792;17.626;2022-09-23T10:09:57;4.83;;;2.50;;
60612;SDS011;46443;59.792;17.626;2022-09-23T10:12:44;5.73;;;2.30;;
60612;SDS011;46443;59.792;17.626;2022-09-23T10:15:47;5.80;;;2.20;;
60612;SDS011;46443;59.792;17.626;2022-09-23T10:18:15;4.10;;;2.00;;
60612;SDS011;46443;59.792;17.626;2022-09-23T10:20:43;4.30;;;2.13;;
60612;SDS011;46443;59.792;17.626;2022-09-23T10:23:21;4.27;;;2.50;;
60612;SDS011;46443;59.792;17.626;2022-09-23T10:25:59;5.38;;;2.28;;
60612;SDS011;46443;59.792;17.626;2022-09-23T10:33:30;4.63;;;2.10;;
60612;SDS011;46443;59.792;17.626;2022-09-23T10:35:56;5.10;;;2.90;;
60612;SDS011;46443;59.792;17.626;2022-09-23T10:38:22;7.57;;;2.47;;
60612;SDS011;46443;59.792;17.626;2022-09-23T10:40:49;4.00;;;2.13;;
60612;SDS011;46443;59.792;17.626;2022-09-23T10:43:47;4.53;;;2.13;;
60612;SDS011;46443;59.792;17.626;2022-09-23T10:46:49;3.80;;;2.08;;
60612;SDS011;46443;59.792;17.626;2022-09-23T11:05:12;4.80;;;2.17;;
60612;SDS011;46443;59.792;17.626;2022-09-23T11:08:02;5.20;;;2.40;;
60612;SDS011;46443;59.792;17.626;2022-09-23T11:13:04;3.63;;;2.03;;
60612;SDS011;46443;59.792;17.626;2022-09-23T11:20:37;3.33;;;1.90;;
60612;SDS011;46443;59.792;17.626;2022-09-23T11:28:42;4.03;;;1.90;;
60612;SDS011;46443;59.792;17.626;2022-09-23T11:36:20;5.43;;;1.97;;
60612;SDS011;46443;59.792;17.626;2022-09-23T11:38:48;3.27;;;1.73;;
60612;SDS011;46443;59.792;17.626;2022-09-23T11:41:16;3.47;;;1.87;;
60612;SDS011;46443;59.792;17.626;2022-09-23T11:43:45;3.93;;;1.93;;
60612;SDS011;46443;59.792;17.626;2022-09-23T11:48:44;4.23;;;1.90;;
60612;SDS011;46443;59.792;17.626;2022-09-23T11:51:18;2.47;;;1.80;;
60612;SDS011;46443;59.792;17.626;2022-09-23T11:53:57;2.87;;;1.60;;
60612;SDS011;46443;59.792;17.626;2022-09-23T11:56:25;4.37;;;1.80;;
60612;SDS011;46443;59.792;17.626;2022-09-23T12:01:24;3.97;;;1.70;;
60612;SDS011;46443;59.792;17.626;2022-09-23T12:04:09;4.83;;;2.10;;
60612;SDS011;46443;59.792;17.626;2022-09-23T12:06:40;6.67;;;2.40;;
60612;SDS011;46443;59.792;17.626;2022-09-23T12:09:29;4.27;;;1.90;;
60612;SDS011;46443;59.792;17.626;2022-09-23T12:12:13;3.23;;;1.83;;
60612;SDS011;46443;59.792;17.626;2022-09-23T12:20:29;4.40;;;2.00;;
60612;SDS011;46443;59.792;17.626;2022-09-23T12:27:53;2.73;;;1.83;;
60612;SDS011;46443;59.792;17.626;2022-09-23T12:30:22;4.80;;;2.67;;
60612;SDS011;46443;59.792;17.626;2022-09-23T12:32:48;3.10;;;2.00;;
60612;SDS011;46443;59.792;17.626;2022-09-23T12:35:29;5.33;;;2.07;;
60612;SDS011;46443;59.792;17.626;2022-09-23T12:37:58;4.23;;;2.20;;
60612;SDS011;46443;59.792;17.626;2022-09-23T12:40:33;3.67;;;2.17;;
60612;SDS011;46443;59.792;17.626;2022-09-23T12:43:18;4.03;;;2.00;;
60612;SDS011;46443;59.792;17.626;2022-09-23T12:45:45;4.33;;;2.07;;
60612;SDS011;46443;59.792;17.626;2022-09-23T12:51:26;3.57;;;1.93;;
60612;SDS011;46443;59.792;17.626;2022-09-23T12:55:59;6.00;;;2.50;;
60612;SDS011;46443;59.792;17.626;2022-09-23T13:03:52;4.40;;;2.30;;
60612;SDS011;46443;59.792;17.626;2022-09-23T13:06:39;3.70;;;2.17;;
60612;SDS011;46443;59.792;17.626;2022-09-23T13:09:13;4.53;;;1.83;;
60612;SDS011;46443;59.792;17.626;2022-09-23T13:11:41;4.27;;;2.00;;
60612;SDS011;46443;59.792;17.626;2022-09-23T13:14:08;4.30;;;2.03;;
60612;SDS011;46443;59.792;17.626;2022-09-23T13:16:42;2.97;;;1.90;;
60612;SDS011;46443;59.792;17.626;2022-09-23T13:26:38;5.13;;;2.10;;
60612;SDS011;46443;59.792;17.626;2022-09-23T13:29:04;3.03;;;1.93;;
60612;SDS011;46443;59.792;17.626;2022-09-23T13:31:31;5.90;;;1.90;;
60612;SDS011;46443;59.792;17.626;2022-09-23T13:34:04;4.13;;;1.90;;
60612;SDS011;46443;59.792;17.626;2022-09-23T13:36:32;3.37;;;1.90;;
60612;SDS011;46443;59.792;17.626;2022-09-23T13:41:40;3.83;;;1.80;;
60612;SDS011;46443;59.792;17.626;2022-09-23T13:44:08;2.67;;;1.60;;
60612;SDS011;46443;59.792;17.626;2022-09-23T13:46:41;5.10;;;1.90;;
60612;SDS011;46443;59.792;17.626;2022-09-23T13:49:31;3.93;;;1.80;;
60612;SDS011;46443;59.792;17.626;2022-09-23T13:51:59;2.77;;;1.77;;
60612;SDS011;46443;59.792;17.626;2022-09-23T13:56:52;4.43;;;1.70;;
60612;SDS011;46443;59.792;17.626;2022-09-23T13:59:27;4.77;;;1.97;;
60612;SDS011;46443;59.792;17.626;2022-09-23T14:02:12;2.57;;;1.60;;
60612;SDS011;46443;59.792;17.626;2022-09-23T14:04:39;4.90;;;2.03;;
60612;SDS011;46443;59.792;17.626;2022-09-23T14:07:06;5.60;;;1.90;;
60612;SDS011;46443;59.792;17.626;2022-09-23T14:09:32;5.27;;;2.07;;
60612;SDS011;46443;59.792;17.626;2022-09-23T14:12:03;2.90;;;1.80;;
60612;SDS011;46443;59.792;17.626;2022-09-23T14:14:30;4.03;;;1.93;;
60612;SDS011;46443;59.792;17.626;2022-09-23T14:16:56;3.17;;;1.90;;
60612;SDS011;46443;59.792;17.626;2022-09-23T14:19:23;4.27;;;1.90;;
60612;SDS011;46443;59.792;17.626;2022-09-23T14:21:51;5.00;;;1.80;;
60612;SDS011;46443;59.792;17.626;2022-09-23T14:24:19;6.10;;;1.90;;
60612;SDS011;46443;59.792;17.626;2022-09-23T14:26:46;5.53;;;1.97;;
60612;SDS011;46443;59.792;17.626;2022-09-23T14:29:14;4.40;;;1.87;;
60612;SDS011;46443;59.792;17.626;2022-09-23T14:31:43;6.07;;;1.87;;
60612;SDS011;46443;59.792;17.626;2022-09-23T14:34:39;3.20;;;2.10;;
60612;SDS011;46443;59.792;17.626;2022-09-23T14:37:19;4.23;;;1.90;;
60612;SDS011;46443;59.792;17.626;2022-09-23T14:40:10;3.65;;;1.80;;
60612;SDS011;46443;59.792;17.626;2022-09-23T14:42:37;5.60;;;2.20;;
60612;SDS011;46443;59.792;17.626;2022-09-23T14:45:05;6.40;;;2.27;;
60612;SDS011;46443;59.792;17.626;2022-09-23T14:47:31;4.87;;;2.33;;
60612;SDS011;46443;59.792;17.626;2022-09-23T14:49:59;3.87;;;1.93;;
60612;SDS011;46443;59.792;17.626;2022-09-23T14:52:50;3.17;;;1.80;;
60612;SDS011;46443;59.792;17.626;2022-09-23T14:55:16;3.30;;;1.90;;
60612;SDS011;46443;59.792;17.626;2022-09-23T14:57:44;4.13;;;2.20;;
60612;SDS011;46443;59.792;17.626;2022-09-23T15:00:17;4.63;;;1.90;;
60612;SDS011;46443;59.792;17.626;2022-09-23T15:02:44;4.33;;;2.00;;
60612;SDS011;46443;59.792;17.626;2022-09-23T15:07:43;5.60;;;2.00;;
60612;SDS011;46443;59.792;17.626;2022-09-23T15:10:14;4.63;;;2.10;;
60612;SDS011;46443;59.792;17.626;2022-09-23T15:12:42;3.65;;;1.80;;
60612;SDS011;46443;59.792;17.626;2022-09-23T15:15:10;4.47;;;2.07;;
60612;SDS011;46443;59.792;17.626;2022-09-23T15:17:37;4.97;;;1.80;;
60612;SDS011;46443;59.792;17.626;2022-09-23T15:20:04;3.70;;;1.83;;
60612;SDS011;46443;59.792;17.626;2022-09-23T15:22:41;6.63;;;1.83;;
60612;SDS011;46443;59.792;17.626;2022-09-23T15:25:10;4.10;;;2.00;;
60612;SDS011;46443;59.792;17.626;2022-09-23T15:27:40;3.87;;;1.90;;
60612;SDS011;46443;59.792;17.626;2022-09-23T15:30:11;4.50;;;1.80;;
60612;SDS011;46443;59.792;17.626;2022-09-23T15:32:41;4.57;;;1.73;;
60612;SDS011;46443;59.792;17.626;2022-09-23T15:35:11;4.10;;;1.80;;
60612;SDS011;46443;59.792;17.626;2022-09-23T15:37:40;3.00;;;1.70;;
60612;SDS011;46443;59.792;17.626;2022-09-23T15:40:12;2.73;;;1.80;;
60612;SDS011;46443;59.792;17.626;2022-09-23T15:42:39;4.53;;;1.80;;
60612;SDS011;46443;59.792;17.626;2022-09-23T15:45:06;5.10;;;1.90;;
60612;SDS011;46443;59.792;17.626;2022-09-23T15:47:33;3.27;;;1.83;;
60612;SDS011;46443;59.792;17.626;2022-09-23T15:49:59;4.17;;;1.87;;
60612;SDS011;46443;59.792;17.626;2022-09-23T15:52:25;3.47;;;1.80;;
60612;SDS011;46443;59.792;17.626;2022-09-23T15:54:51;7.23;;;2.17;;
60612;SDS011;46443;59.792;17.626;2022-09-23T15:57:17;3.57;;;1.90;;
60612;SDS011;46443;59.792;17.626;2022-09-23T15:59:44;3.57;;;2.00;;
60612;SDS011;46443;59.792;17.626;2022-09-23T16:02:20;5.40;;;2.27;;
60612;SDS011;46443;59.792;17.626;2022-09-23T16:04:48;5.23;;;2.47;;
60612;SDS011;46443;59.792;17.626;2022-09-23T16:07:16;4.23;;;2.10;;
60612;SDS011;46443;59.792;17.626;2022-09-23T16:09:43;4.03;;;2.10;;
60612;SDS011;46443;59.792;17.626;2022-09-23T16:12:10;5.17;;;1.93;;
60612;SDS011;46443;59.792;17.626;2022-09-23T16:14:36;5.17;;;2.10;;
60612;SDS011;46443;59.792;17.626;2022-09-23T16:17:02;4.80;;;1.90;;
60612;SDS011;46443;59.792;17.626;2022-09-23T16:19:29;4.47;;;1.93;;
60612;SDS011;46443;59.792;17.626;2022-09-23T16:21:59;4.33;;;2.00;;
60612;SDS011;46443;59.792;17.626;2022-09-23T16:24:25;4.80;;;2.10;;
60612;SDS011;46443;59.792;17.626;2022-09-23T16:26:51;3.83;;;2.00;;
60612;SDS011;46443;59.792;17.626;2022-09-23T16:29:17;4.27;;;1.70;;
60612;SDS011;46443;59.792;17.626;2022-09-23T16:31:43;5.47;;;2.03;;
60612;SDS011;46443;59.792;17.626;2022-09-23T16:34:09;4.07;;;1.87;;
60612;SDS011;46443;59.792;17.626;2022-09-23T16:36:39;3.77;;;1.93;;
60612;SDS011;46443;59.792;17.626;2022-09-23T16:39:06;4.00;;;1.90;;
60612;SDS011;46443;59.792;17.626;2022-09-23T16:41:34;5.40;;;1.80;;
60612;SDS011;46443;59.792;17.626;2022-09-23T16:44:00;6.67;;;2.00;;
60612;SDS011;46443;59.792;17.626;2022-09-23T16:46:28;6.53;;;1.93;;
60612;SDS011;46443;59.792;17.626;2022-09-23T16:48:55;2.23;;;1.60;;
60612;SDS011;46443;59.792;17.626;2022-09-23T16:51:23;4.83;;;1.80;;
60612;SDS011;46443;59.792;17.626;2022-09-23T16:53:50;4.17;;;1.97;;
60612;SDS011;46443;59.792;17.626;2022-09-23T16:56:17;4.43;;;1.70;;
60612;SDS011;46443;59.792;17.626;2022-09-23T16:58:44;5.27;;;1.90;;
60612;SDS011;46443;59.792;17.626;2022-09-23T17:01:13;3.93;;;2.07;;
60612;SDS011;46443;59.792;17.626;2022-09-23T17:03:58;4.97;;;1.90;;
60612;SDS011;46443;59.792;17.626;2022-09-23T17:06:24;4.77;;;1.87;;
60612;SDS011;46443;59.792;17.626;2022-09-23T17:08:53;5.45;;;2.00;;
60612;SDS011;46443;59.792;17.626;2022-09-23T17:11:20;4.20;;;2.30;;
60612;SDS011;46443;59.792;17.626;2022-09-23T17:13:46;3.00;;;1.87;;
60612;SDS011;46443;59.792;17.626;2022-09-23T17:16:23;6.63;;;1.90;;
60612;SDS011;46443;59.792;17.626;2022-09-23T17:18:50;3.70;;;2.13;;